sensor_id;sensor_type;location;lat;lon;timestamp;temperature;humidity
27188;DHT22;14708;50.872;5.306;2023-06-04T00:00:25;23.20;39.20
27188;DHT22;14708;50.872;5.306;2023-06-04T00:02:51;23.20;39.40
27188;DHT22;14708;50.872;5.306;2023-06-04T00:05:17;23.20;39.50
27188;DHT22;14708;50.872;5.306;2023-06-04T00:07:43;23.20;39.70
27188;DHT22;14708;50.872;5.306;2023-06-04T00:10:09;23.20;39.70
27188;DHT22;14708;50.872;5.306;2023-06-04T00:12:35;23.20;39.70
27188;DHT22;14708;50.872;5.306;2023-06-04T00:15:01;23.20;39.70
27188;DHT22;14708;50.872;5.306;2023-06-04T00:17:27;23.10;39.80
27188;DHT22;14708;50.872;5.306;2023-06-04T00:19:52;23.10;39.90
27188;DHT22;14708;50.872;5.306;2023-06-04T00:22:18;23.10;39.90
27188;DHT22;14708;50.872;5.306;2023-06-04T00:24:43;23.10;40.00
27188;DHT22;14708;50.872;5.306;2023-06-04T00:27:09;23.10;40.00
27188;DHT22;14708;50.872;5.306;2023-06-04T00:29:35;23.10;40.00
27188;DHT22;14708;50.872;5.306;2023-06-04T00:32:01;23.10;40.00
27188;DHT22;14708;50.872;5.306;2023-06-04T00:34:27;23.10;40.00
27188;DHT22;14708;50.872;5.306;2023-06-04T00:36:53;23.10;40.10
27188;DHT22;14708;50.872;5.306;2023-06-04T00:39:18;23.10;40.20
27188;DHT22;14708;50.872;5.306;2023-06-04T00:41:44;23.10;40.10
27188;DHT22;14708;50.872;5.306;2023-06-04T00:44:09;23.10;40.10
27188;DHT22;14708;50.872;5.306;2023-06-04T00:46:37;23.10;40.10
27188;DHT22;14708;50.872;5.306;2023-06-04T00:49:03;23.10;40.20
27188;DHT22;14708;50.872;5.306;2023-06-04T00:51:30;23.10;40.10
27188;DHT22;14708;50.872;5.306;2023-06-04T00:53:56;23.10;40.10
27188;DHT22;14708;50.872;5.306;2023-06-04T00:56:22;23.10;40.10
27188;DHT22;14708;50.872;5.306;2023-06-04T00:58:48;23.10;40.00
27188;DHT22;14708;50.872;5.306;2023-06-04T01:03:52;23.10;40.30
27188;DHT22;14708;50.872;5.306;2023-06-04T01:06:42;23.10;40.20
27188;DHT22;14708;50.872;5.306;2023-06-04T01:09:10;23.10;40.40
27188;DHT22;14708;50.872;5.306;2023-06-04T01:11:38;23.10;40.30
27188;DHT22;14708;50.872;5.306;2023-06-04T01:14:05;23.10;40.30
27188;DHT22;14708;50.872;5.306;2023-06-04T01:16:55;23.10;40.40
27188;DHT22;14708;50.872;5.306;2023-06-04T01:25:36;23.10;40.70
27188;DHT22;14708;50.872;5.306;2023-06-04T01:28:01;23.10;40.70
27188;DHT22;14708;50.872;5.306;2023-06-04T01:30:32;23.10;40.70
27188;DHT22;14708;50.872;5.306;2023-06-04T01:32:58;23.00;40.80
27188;DHT22;14708;50.872;5.306;2023-06-04T01:35:26;23.10;40.80
27188;DHT22;14708;50.872;5.306;2023-06-04T01:37:52;23.00;40.90
27188;DHT22;14708;50.872;5.306;2023-06-04T01:40:18;23.00;40.90
27188;DHT22;14708;50.872;5.306;2023-06-04T01:42:44;23.00;41.10
27188;DHT22;14708;50.872;5.306;2023-06-04T01:45:10;23.00;41.00
27188;DHT22;14708;50.872;5.306;2023-06-04T01:47:36;23.10;41.10
27188;DHT22;14708;50.872;5.306;2023-06-04T01:50:02;23.00;41.00
27188;DHT22;14708;50.872;5.306;2023-06-04T01:52:28;23.00;41.10
27188;DHT22;14708;50.872;5.306;2023-06-04T01:54:54;23.00;41.10
27188;DHT22;14708;50.872;5.306;2023-06-04T01:57:21;23.00;41.20
27188;DHT22;14708;50.872;5.306;2023-06-04T01:59:47;23.00;41.10
27188;DHT22;14708;50.872;5.306;2023-06-04T02:02:13;23.00;41.30
27188;DHT22;14708;50.872;5.306;2023-06-04T02:04:39;23.00;41.50
27188;DHT22;14708;50.872;5.306;2023-06-04T02:07:08;23.00;41.40
27188;DHT22;14708;50.872;5.306;2023-06-04T02:09:34;23.00;41.40
27188;DHT22;14708;50.872;5.306;2023-06-04T02:12:00;23.00;41.40
27188;DHT22;14708;50.872;5.306;2023-06-04T02:14:26;23.00;41.50
27188;DHT22;14708;50.872;5.306;2023-06-04T02:16:51;23.00;41.50
27188;DHT22;14708;50.872;5.306;2023-06-04T02:19:19;23.00;41.60
27188;DHT22;14708;50.872;5.306;2023-06-04T02:21:46;23.00;41.60
27188;DHT22;14708;50.872;5.306;2023-06-04T02:24:12;23.00;41.70
27188;DHT22;14708;50.872;5.306;2023-06-04T02:26:37;23.00;41.70
27188;DHT22;14708;50.872;5.306;2023-06-04T02:29:03;23.00;41.50
27188;DHT22;14708;50.872;5.306;2023-06-04T02:31:29;23.00;41.90
27188;DHT22;14708;50.872;5.306;2023-06-04T02:33:56;23.00;41.80
27188;DHT22;14708;50.872;5.306;2023-06-04T02:36:21;23.00;41.90
27188;DHT22;14708;50.872;5.306;2023-06-04T02:38:47;23.00;41.80
27188;DHT22;14708;50.872;5.306;2023-06-04T02:41:13;23.00;41.90
27188;DHT22;14708;50.872;5.306;2023-06-04T02:43:38;23.00;41.90
27188;DHT22;14708;50.872;5.306;2023-06-04T02:46:04;23.00;42.00
27188;DHT22;14708;50.872;5.306;2023-06-04T02:48:31;23.00;42.30
27188;DHT22;14708;50.872;5.306;2023-06-04T02:50:57;22.90;42.10
27188;DHT22;14708;50.872;5.306;2023-06-04T02:53:22;23.00;42.20
27188;DHT22;14708;50.872;5.306;2023-06-04T02:55:49;23.00;42.20
27188;DHT22;14708;50.872;5.306;2023-06-04T02:58:17;22.90;42.50
27188;DHT22;14708;50.872;5.306;2023-06-04T03:00:43;22.90;42.40
27188;DHT22;14708;50.872;5.306;2023-06-04T03:03:08;22.90;42.30
27188;DHT22;14708;50.872;5.306;2023-06-04T03:05:34;22.90;42.20
27188;DHT22;14708;50.872;5.306;2023-06-04T03:08:02;23.00;42.50
27188;DHT22;14708;50.872;5.306;2023-06-04T03:10:29;22.90;42.40
27188;DHT22;14708;50.872;5.306;2023-06-04T03:12:56;22.90;42.50
27188;DHT22;14708;50.872;5.306;2023-06-04T03:15:22;22.90;42.60
27188;DHT22;14708;50.872;5.306;2023-06-04T03:17:47;22.90;42.50
27188;DHT22;14708;50.872;5.306;2023-06-04T03:20:14;22.90;42.50
27188;DHT22;14708;50.872;5.306;2023-06-04T03:22:39;22.90;42.50
27188;DHT22;14708;50.872;5.306;2023-06-04T03:25:05;22.90;42.60
27188;DHT22;14708;50.872;5.306;2023-06-04T03:27:32;22.90;42.70
27188;DHT22;14708;50.872;5.306;2023-06-04T03:29:58;22.90;42.60
27188;DHT22;14708;50.872;5.306;2023-06-04T03:32:24;22.90;42.60
27188;DHT22;14708;50.872;5.306;2023-06-04T03:34:49;22.90;42.70
27188;DHT22;14708;50.872;5.306;2023-06-04T03:37:17;22.80;42.80
27188;DHT22;14708;50.872;5.306;2023-06-04T03:39:42;22.90;42.70
27188;DHT22;14708;50.872;5.306;2023-06-04T03:42:08;22.80;42.70
27188;DHT22;14708;50.872;5.306;2023-06-04T03:44:34;22.80;42.80
27188;DHT22;14708;50.872;5.306;2023-06-04T03:46:59;22.80;42.60
27188;DHT22;14708;50.872;5.306;2023-06-04T03:49:25;22.80;42.80
27188;DHT22;14708;50.872;5.306;2023-06-04T03:51:51;22.80;42.70
27188;DHT22;14708;50.872;5.306;2023-06-04T03:54:16;22.80;42.80
27188;DHT22;14708;50.872;5.306;2023-06-04T03:56:45;22.80;42.80
27188;DHT22;14708;50.872;5.306;2023-06-04T03:59:10;22.80;42.80
27188;DHT22;14708;50.872;5.306;2023-06-04T04:01:36;22.80;42.90
27188;DHT22;14708;50.872;5.306;2023-06-04T04:04:02;22.80;42.90
27188;DHT22;14708;50.872;5.306;2023-06-04T04:06:27;22.80;43.00
27188;DHT22;14708;50.872;5.306;2023-06-04T04:08:53;22.80;43.00
27188;DHT22;14708;50.872;5.306;2023-06-04T04:11:19;22.80;43.10
27188;DHT22;14708;50.872;5.306;2023-06-04T04:13:45;22.80;43.20
27188;DHT22;14708;50.872;5.306;2023-06-04T04:16:11;22.80;43.20
27188;DHT22;14708;50.872;5.306;2023-06-04T04:18:37;22.80;43.70
27188;DHT22;14708;50.872;5.306;2023-06-04T04:21:03;22.80;43.30
27188;DHT22;14708;50.872;5.306;2023-06-04T04:23:31;22.80;43.20
27188;DHT22;14708;50.872;5.306;2023-06-04T04:25:58;22.80;43.20
27188;DHT22;14708;50.872;5.306;2023-06-04T04:28:24;22.80;43.20
27188;DHT22;14708;50.872;5.306;2023-06-04T04:30:54;22.90;43.40
27188;DHT22;14708;50.872;5.306;2023-06-04T04:33:25;22.80;43.30
27188;DHT22;14708;50.872;5.306;2023-06-04T04:35:51;22.90;43.40
27188;DHT22;14708;50.872;5.306;2023-06-04T04:38:21;22.90;43.40
27188;DHT22;14708;50.872;5.306;2023-06-04T04:40:49;22.90;43.40
27188;DHT22;14708;50.872;5.306;2023-06-04T04:43:27;22.90;43.50
27188;DHT22;14708;50.872;5.306;2023-06-04T04:45:53;22.90;43.40
27188;DHT22;14708;50.872;5.306;2023-06-04T04:48:19;22.90;43.50
27188;DHT22;14708;50.872;5.306;2023-06-04T04:50:44;23.00;43.40
27188;DHT22;14708;50.872;5.306;2023-06-04T04:53:10;23.00;43.40
27188;DHT22;14708;50.872;5.306;2023-06-04T04:55:36;23.00;43.30
27188;DHT22;14708;50.872;5.306;2023-06-04T04:58:01;23.00;43.30
27188;DHT22;14708;50.872;5.306;2023-06-04T05:00:28;23.10;43.30
27188;DHT22;14708;50.872;5.306;2023-06-04T05:02:54;23.10;43.20
27188;DHT22;14708;50.872;5.306;2023-06-04T05:05:19;23.10;43.30
27188;DHT22;14708;50.872;5.306;2023-06-04T05:07:45;23.10;43.30
27188;DHT22;14708;50.872;5.306;2023-06-04T05:10:10;23.10;43.30
27188;DHT22;14708;50.872;5.306;2023-06-04T05:12:36;23.20;43.30
27188;DHT22;14708;50.872;5.306;2023-06-04T05:15:02;23.20;43.40
27188;DHT22;14708;50.872;5.306;2023-06-04T05:17:28;23.20;43.30
27188;DHT22;14708;50.872;5.306;2023-06-04T05:19:56;23.20;43.40
27188;DHT22;14708;50.872;5.306;2023-06-04T05:22:31;23.30;43.40
27188;DHT22;14708;50.872;5.306;2023-06-04T05:24:57;23.30;43.40
27188;DHT22;14708;50.872;5.306;2023-06-04T05:27:25;23.40;43.40
27188;DHT22;14708;50.872;5.306;2023-06-04T05:29:51;23.40;43.30
27188;DHT22;14708;50.872;5.306;2023-06-04T05:32:16;23.40;43.50
27188;DHT22;14708;50.872;5.306;2023-06-04T05:34:43;23.40;43.40
27188;DHT22;14708;50.872;5.306;2023-06-04T05:37:09;23.40;43.60
27188;DHT22;14708;50.872;5.306;2023-06-04T05:39:34;23.40;43.90
27188;DHT22;14708;50.872;5.306;2023-06-04T05:42:01;23.40;43.80
27188;DHT22;14708;50.872;5.306;2023-06-04T05:44:26;23.50;43.90
27188;DHT22;14708;50.872;5.306;2023-06-04T05:46:52;23.50;43.90
27188;DHT22;14708;50.872;5.306;2023-06-04T05:49:18;23.50;43.70
27188;DHT22;14708;50.872;5.306;2023-06-04T05:51:45;23.60;43.90
27188;DHT22;14708;50.872;5.306;2023-06-04T05:54:10;23.60;43.80
27188;DHT22;14708;50.872;5.306;2023-06-04T05:56:36;23.60;43.80
27188;DHT22;14708;50.872;5.306;2023-06-04T05:59:01;23.70;43.90
27188;DHT22;14708;50.872;5.306;2023-06-04T06:01:27;23.70;44.00
27188;DHT22;14708;50.872;5.306;2023-06-04T06:03:54;23.70;43.90
27188;DHT22;14708;50.872;5.306;2023-06-04T06:06:20;23.60;43.90
27188;DHT22;14708;50.872;5.306;2023-06-04T06:08:46;23.70;43.10
27188;DHT22;14708;50.872;5.306;2023-06-04T06:11:12;23.70;42.80
27188;DHT22;14708;50.872;5.306;2023-06-04T06:13:38;23.60;42.80
27188;DHT22;14708;50.872;5.306;2023-06-04T06:16:03;23.60;43.00
27188;DHT22;14708;50.872;5.306;2023-06-04T06:18:30;23.60;43.10
27188;DHT22;14708;50.872;5.306;2023-06-04T06:20:55;23.60;43.10
27188;DHT22;14708;50.872;5.306;2023-06-04T06:23:21;23.60;43.00
27188;DHT22;14708;50.872;5.306;2023-06-04T06:25:48;23.60;42.90
27188;DHT22;14708;50.872;5.306;2023-06-04T06:28:15;23.60;42.80
27188;DHT22;14708;50.872;5.306;2023-06-04T06:30:40;23.60;42.70
27188;DHT22;14708;50.872;5.306;2023-06-04T06:33:06;23.60;42.50
27188;DHT22;14708;50.872;5.306;2023-06-04T06:35:31;23.50;42.30
27188;DHT22;14708;50.872;5.306;2023-06-04T06:37:58;23.50;42.20
27188;DHT22;14708;50.872;5.306;2023-06-04T06:40:23;23.50;42.20
27188;DHT22;14708;50.872;5.306;2023-06-04T06:42:49;23.50;42.10
27188;DHT22;14708;50.872;5.306;2023-06-04T06:45:19;23.50;41.90
27188;DHT22;14708;50.872;5.306;2023-06-04T06:47:45;23.60;41.90
27188;DHT22;14708;50.872;5.306;2023-06-04T06:50:11;23.60;41.60
27188;DHT22;14708;50.872;5.306;2023-06-04T06:52:37;23.70;41.80
27188;DHT22;14708;50.872;5.306;2023-06-04T06:55:04;23.70;41.80
27188;DHT22;14708;50.872;5.306;2023-06-04T06:57:30;23.80;41.50
27188;DHT22;14708;50.872;5.306;2023-06-04T06:59:55;23.80;41.50
27188;DHT22;14708;50.872;5.306;2023-06-04T07:02:22;23.80;41.60
27188;DHT22;14708;50.872;5.306;2023-06-04T07:04:48;23.80;41.80
27188;DHT22;14708;50.872;5.306;2023-06-04T07:07:13;23.70;41.70
27188;DHT22;14708;50.872;5.306;2023-06-04T07:09:39;23.60;41.40
27188;DHT22;14708;50.872;5.306;2023-06-04T07:12:05;23.70;40.60
27188;DHT22;14708;50.872;5.306;2023-06-04T07:14:31;23.70;41.20
27188;DHT22;14708;50.872;5.306;2023-06-04T07:16:57;23.70;40.60
27188;DHT22;14708;50.872;5.306;2023-06-04T07:19:23;23.70;40.50
27188;DHT22;14708;50.872;5.306;2023-06-04T07:21:49;23.60;41.00
27188;DHT22;14708;50.872;5.306;2023-06-04T07:24:15;23.60;40.70
27188;DHT22;14708;50.872;5.306;2023-06-04T07:26:40;23.60;40.60
27188;DHT22;14708;50.872;5.306;2023-06-04T07:29:06;23.50;40.70
27188;DHT22;14708;50.872;5.306;2023-06-04T07:31:32;23.60;40.60
27188;DHT22;14708;50.872;5.306;2023-06-04T07:33:58;23.50;40.90
27188;DHT22;14708;50.872;5.306;2023-06-04T07:36:23;23.50;40.70
27188;DHT22;14708;50.872;5.306;2023-06-04T07:38:49;23.60;40.80
27188;DHT22;14708;50.872;5.306;2023-06-04T07:41:15;23.50;40.90
27188;DHT22;14708;50.872;5.306;2023-06-04T07:43:40;23.50;41.00
27188;DHT22;14708;50.872;5.306;2023-06-04T07:46:07;23.50;41.40
27188;DHT22;14708;50.872;5.306;2023-06-04T07:48:34;23.60;42.40
27188;DHT22;14708;50.872;5.306;2023-06-04T07:51:01;23.60;41.70
27188;DHT22;14708;50.872;5.306;2023-06-04T07:53:27;23.60;41.50
27188;DHT22;14708;50.872;5.306;2023-06-04T07:55:54;23.50;40.50
27188;DHT22;14708;50.872;5.306;2023-06-04T07:58:20;23.40;40.20
27188;DHT22;14708;50.872;5.306;2023-06-04T08:00:46;23.40;39.30
27188;DHT22;14708;50.872;5.306;2023-06-04T08:03:12;23.40;40.30
27188;DHT22;14708;50.872;5.306;2023-06-04T08:05:46;23.40;41.10
27188;DHT22;14708;50.872;5.306;2023-06-04T08:08:12;23.50;41.30
27188;DHT22;14708;50.872;5.306;2023-06-04T08:10:39;23.50;41.10
27188;DHT22;14708;50.872;5.306;2023-06-04T08:13:05;23.50;41.10
27188;DHT22;14708;50.872;5.306;2023-06-04T08:15:31;23.50;41.20
27188;DHT22;14708;50.872;5.306;2023-06-04T08:17:56;23.50;41.00
27188;DHT22;14708;50.872;5.306;2023-06-04T08:20:23;23.50;40.90
27188;DHT22;14708;50.872;5.306;2023-06-04T08:22:49;23.50;41.00
27188;DHT22;14708;50.872;5.306;2023-06-04T08:25:14;23.50;41.10
27188;DHT22;14708;50.872;5.306;2023-06-04T08:27:41;23.50;40.40
27188;DHT22;14708;50.872;5.306;2023-06-04T08:30:09;23.50;40.70
27188;DHT22;14708;50.872;5.306;2023-06-04T08:32:34;23.50;40.90
27188;DHT22;14708;50.872;5.306;2023-06-04T08:35:00;23.50;41.20
27188;DHT22;14708;50.872;5.306;2023-06-04T08:37:26;23.60;41.30
27188;DHT22;14708;50.872;5.306;2023-06-04T08:39:52;23.60;40.80
27188;DHT22;14708;50.872;5.306;2023-06-04T08:42:30;23.50;41.40
27188;DHT22;14708;50.872;5.306;2023-06-04T08:44:58;23.50;40.60
27188;DHT22;14708;50.872;5.306;2023-06-04T08:47:24;23.50;41.30
27188;DHT22;14708;50.872;5.306;2023-06-04T08:49:52;23.50;41.50
27188;DHT22;14708;50.872;5.306;2023-06-04T08:52:18;23.50;41.10
27188;DHT22;14708;50.872;5.306;2023-06-04T08:54:51;23.50;41.10
27188;DHT22;14708;50.872;5.306;2023-06-04T08:57:18;23.50;40.40
27188;DHT22;14708;50.872;5.306;2023-06-04T08:59:48;23.50;40.80
27188;DHT22;14708;50.872;5.306;2023-06-04T09:02:15;23.50;39.70
27188;DHT22;14708;50.872;5.306;2023-06-04T09:04:42;23.50;40.80
27188;DHT22;14708;50.872;5.306;2023-06-04T09:07:08;23.50;40.00
27188;DHT22;14708;50.872;5.306;2023-06-04T09:09:39;23.50;40.40
27188;DHT22;14708;50.872;5.306;2023-06-04T09:12:05;23.50;39.60
27188;DHT22;14708;50.872;5.306;2023-06-04T09:14:34;23.60;39.40
27188;DHT22;14708;50.872;5.306;2023-06-04T09:16:59;23.60;40.20
27188;DHT22;14708;50.872;5.306;2023-06-04T09:19:25;23.60;39.90
27188;DHT22;14708;50.872;5.306;2023-06-04T09:21:58;23.70;40.80
27188;DHT22;14708;50.872;5.306;2023-06-04T09:24:38;23.70;41.10
27188;DHT22;14708;50.872;5.306;2023-06-04T09:27:10;23.70;41.50
27188;DHT22;14708;50.872;5.306;2023-06-04T09:29:36;23.80;41.50
27188;DHT22;14708;50.872;5.306;2023-06-04T09:32:02;23.80;41.70
27188;DHT22;14708;50.872;5.306;2023-06-04T09:34:28;23.80;41.90
27188;DHT22;14708;50.872;5.306;2023-06-04T09:36:54;23.80;42.30
27188;DHT22;14708;50.872;5.306;2023-06-04T09:39:20;23.80;42.80
27188;DHT22;14708;50.872;5.306;2023-06-04T09:41:57;23.80;42.90
27188;DHT22;14708;50.872;5.306;2023-06-04T09:44:23;23.80;42.90
27188;DHT22;14708;50.872;5.306;2023-06-04T09:46:58;23.70;42.90
27188;DHT22;14708;50.872;5.306;2023-06-04T09:49:24;23.70;43.10
27188;DHT22;14708;50.872;5.306;2023-06-04T09:51:50;23.70;42.90
27188;DHT22;14708;50.872;5.306;2023-06-04T09:54:16;23.70;42.70
27188;DHT22;14708;50.872;5.306;2023-06-04T09:56:42;23.70;42.40
27188;DHT22;14708;50.872;5.306;2023-06-04T09:59:12;23.70;42.30
27188;DHT22;14708;50.872;5.306;2023-06-04T10:01:39;23.70;42.00
27188;DHT22;14708;50.872;5.306;2023-06-04T10:04:09;23.70;42.00
27188;DHT22;14708;50.872;5.306;2023-06-04T10:06:37;23.70;42.10
27188;DHT22;14708;50.872;5.306;2023-06-04T10:09:07;23.70;42.30
27188;DHT22;14708;50.872;5.306;2023-06-04T10:11:37;23.70;42.50
27188;DHT22;14708;50.872;5.306;2023-06-04T10:14:07;23.70;42.70
27188;DHT22;14708;50.872;5.306;2023-06-04T10:16:34;23.70;43.00
27188;DHT22;14708;50.872;5.306;2023-06-04T10:19:04;23.70;42.80
27188;DHT22;14708;50.872;5.306;2023-06-04T10:21:31;23.70;42.80
27188;DHT22;14708;50.872;5.306;2023-06-04T10:24:00;23.70;42.80
27188;DHT22;14708;50.872;5.306;2023-06-04T10:26:26;23.70;42.30
27188;DHT22;14708;50.872;5.306;2023-06-04T10:28:52;23.70;42.40
27188;DHT22;14708;50.872;5.306;2023-06-04T10:31:18;23.70;42.20
27188;DHT22;14708;50.872;5.306;2023-06-04T10:33:44;23.70;42.00
27188;DHT22;14708;50.872;5.306;2023-06-04T10:36:17;23.70;41.90
27188;DHT22;14708;50.872;5.306;2023-06-04T10:38:48;23.70;41.80
27188;DHT22;14708;50.872;5.306;2023-06-04T10:41:15;23.80;41.70
27188;DHT22;14708;50.872;5.306;2023-06-04T10:43:45;23.80;41.70
27188;DHT22;14708;50.872;5.306;2023-06-04T10:46:16;23.80;41.80
27188;DHT22;14708;50.872;5.306;2023-06-04T10:48:52;23.80;41.50
27188;DHT22;14708;50.872;5.306;2023-06-04T10:51:34;23.80;41.90
27188;DHT22;14708;50.872;5.306;2023-06-04T10:54:01;23.80;41.60
27188;DHT22;14708;50.872;5.306;2023-06-04T10:56:31;23.80;41.90
27188;DHT22;14708;50.872;5.306;2023-06-04T10:59:00;23.80;41.60
27188;DHT22;14708;50.872;5.306;2023-06-04T11:01:29;23.80;41.70
27188;DHT22;14708;50.872;5.306;2023-06-04T11:03:57;23.90;41.50
27188;DHT22;14708;50.872;5.306;2023-06-04T11:06:23;23.80;41.70
27188;DHT22;14708;50.872;5.306;2023-06-04T11:09:04;23.90;41.90
27188;DHT22;14708;50.872;5.306;2023-06-04T11:11:30;23.90;42.20
27188;DHT22;14708;50.872;5.306;2023-06-04T11:14:12;23.80;42.10
27188;DHT22;14708;50.872;5.306;2023-06-04T11:16:38;23.80;42.30
27188;DHT22;14708;50.872;5.306;2023-06-04T11:19:04;23.90;42.30
27188;DHT22;14708;50.872;5.306;2023-06-04T11:21:30;23.90;41.60
27188;DHT22;14708;50.872;5.306;2023-06-04T11:23:58;23.90;41.30
27188;DHT22;14708;50.872;5.306;2023-06-04T11:26:34;23.90;42.10
27188;DHT22;14708;50.872;5.306;2023-06-04T11:29:01;23.90;39.90
27188;DHT22;14708;50.872;5.306;2023-06-04T11:31:27;23.90;41.40
27188;DHT22;14708;50.872;5.306;2023-06-04T11:33:53;23.90;41.10
27188;DHT22;14708;50.872;5.306;2023-06-04T11:36:29;23.80;41.20
27188;DHT22;14708;50.872;5.306;2023-06-04T11:41:21;23.80;41.60
27188;DHT22;14708;50.872;5.306;2023-06-04T11:43:49;23.80;41.60
27188;DHT22;14708;50.872;5.306;2023-06-04T11:46:15;23.80;40.40
27188;DHT22;14708;50.872;5.306;2023-06-04T11:48:41;23.80;40.40
27188;DHT22;14708;50.872;5.306;2023-06-04T11:51:08;23.80;39.90
27188;DHT22;14708;50.872;5.306;2023-06-04T11:53:37;23.80;40.40
27188;DHT22;14708;50.872;5.306;2023-06-04T11:56:04;23.80;40.60
27188;DHT22;14708;50.872;5.306;2023-06-04T11:58:30;23.80;39.90
27188;DHT22;14708;50.872;5.306;2023-06-04T12:00:56;23.90;40.00
27188;DHT22;14708;50.872;5.306;2023-06-04T12:03:40;23.80;40.30
27188;DHT22;14708;50.872;5.306;2023-06-04T12:06:13;23.80;39.00
27188;DHT22;14708;50.872;5.306;2023-06-04T12:13:58;23.70;39.70
27188;DHT22;14708;50.872;5.306;2023-06-04T12:16:24;23.70;40.00
27188;DHT22;14708;50.872;5.306;2023-06-04T12:18:50;23.70;40.20
27188;DHT22;14708;50.872;5.306;2023-06-04T12:21:25;23.70;40.00
27188;DHT22;14708;50.872;5.306;2023-06-04T12:24:12;23.70;39.00
27188;DHT22;14708;50.872;5.306;2023-06-04T12:26:39;23.70;38.50
27188;DHT22;14708;50.872;5.306;2023-06-04T12:29:15;23.80;39.30
27188;DHT22;14708;50.872;5.306;2023-06-04T12:31:42;23.80;39.60
27188;DHT22;14708;50.872;5.306;2023-06-04T12:34:09;23.80;39.60
27188;DHT22;14708;50.872;5.306;2023-06-04T12:36:36;23.80;39.50
27188;DHT22;14708;50.872;5.306;2023-06-04T12:39:04;23.80;40.00
27188;DHT22;14708;50.872;5.306;2023-06-04T12:41:30;23.80;40.10
27188;DHT22;14708;50.872;5.306;2023-06-04T12:43:56;23.80;40.10
27188;DHT22;14708;50.872;5.306;2023-06-04T12:46:23;23.90;39.80
27188;DHT22;14708;50.872;5.306;2023-06-04T12:48:53;23.90;40.10
27188;DHT22;14708;50.872;5.306;2023-06-04T12:51:19;23.80;40.00
27188;DHT22;14708;50.872;5.306;2023-06-04T12:53:46;23.90;40.00
27188;DHT22;14708;50.872;5.306;2023-06-04T12:56:12;23.90;40.10
27188;DHT22;14708;50.872;5.306;2023-06-04T12:58:38;23.80;39.80
27188;DHT22;14708;50.872;5.306;2023-06-04T13:01:03;23.80;39.40
27188;DHT22;14708;50.872;5.306;2023-06-04T13:03:33;23.90;39.80
27188;DHT22;14708;50.872;5.306;2023-06-04T13:06:01;23.90;39.70
27188;DHT22;14708;50.872;5.306;2023-06-04T13:08:27;23.90;40.10
27188;DHT22;14708;50.872;5.306;2023-06-04T13:10:53;23.90;40.50
27188;DHT22;14708;50.872;5.306;2023-06-04T13:13:19;23.90;40.20
27188;DHT22;14708;50.872;5.306;2023-06-04T13:15:45;23.90;40.10
27188;DHT22;14708;50.872;5.306;2023-06-04T13:18:11;23.90;40.10
27188;DHT22;14708;50.872;5.306;2023-06-04T13:20:39;24.00;40.20
27188;DHT22;14708;50.872;5.306;2023-06-04T13:23:05;24.00;40.40
27188;DHT22;14708;50.872;5.306;2023-06-04T13:25:31;24.00;40.20
27188;DHT22;14708;50.872;5.306;2023-06-04T13:27:59;23.90;40.00
27188;DHT22;14708;50.872;5.306;2023-06-04T13:30:25;23.90;39.90
27188;DHT22;14708;50.872;5.306;2023-06-04T13:32:50;23.90;40.10
27188;DHT22;14708;50.872;5.306;2023-06-04T13:35:16;23.80;40.00
27188;DHT22;14708;50.872;5.306;2023-06-04T13:37:42;23.80;40.40
27188;DHT22;14708;50.872;5.306;2023-06-04T13:40:08;23.80;40.20
27188;DHT22;14708;50.872;5.306;2023-06-04T13:42:33;23.90;39.60
27188;DHT22;14708;50.872;5.306;2023-06-04T13:45:00;23.90;39.50
27188;DHT22;14708;50.872;5.306;2023-06-04T13:47:25;24.00;39.60
27188;DHT22;14708;50.872;5.306;2023-06-04T13:49:51;24.00;39.50
27188;DHT22;14708;50.872;5.306;2023-06-04T13:52:17;24.00;39.90
27188;DHT22;14708;50.872;5.306;2023-06-04T13:54:43;24.00;39.60
27188;DHT22;14708;50.872;5.306;2023-06-04T13:57:09;24.00;39.50
27188;DHT22;14708;50.872;5.306;2023-06-04T13:59:38;24.00;39.50
27188;DHT22;14708;50.872;5.306;2023-06-04T14:02:04;23.90;39.80
27188;DHT22;14708;50.872;5.306;2023-06-04T14:04:30;23.90;40.00
27188;DHT22;14708;50.872;5.306;2023-06-04T14:06:55;23.90;39.90
27188;DHT22;14708;50.872;5.306;2023-06-04T14:09:21;23.90;39.90
27188;DHT22;14708;50.872;5.306;2023-06-04T14:11:47;23.90;39.90
27188;DHT22;14708;50.872;5.306;2023-06-04T14:14:16;23.90;39.50
27188;DHT22;14708;50.872;5.306;2023-06-04T14:16:44;24.00;39.40
27188;DHT22;14708;50.872;5.306;2023-06-04T14:19:10;24.00;39.10
27188;DHT22;14708;50.872;5.306;2023-06-04T14:21:35;24.00;39.00
27188;DHT22;14708;50.872;5.306;2023-06-04T14:24:01;24.10;39.50
27188;DHT22;14708;50.872;5.306;2023-06-04T14:26:27;24.00;39.30
27188;DHT22;14708;50.872;5.306;2023-06-04T14:28:54;24.00;39.30
27188;DHT22;14708;50.872;5.306;2023-06-04T14:31:19;24.00;39.20
27188;DHT22;14708;50.872;5.306;2023-06-04T14:33:45;24.00;39.10
27188;DHT22;14708;50.872;5.306;2023-06-04T14:36:11;24.00;39.00
27188;DHT22;14708;50.872;5.306;2023-06-04T14:38:36;24.00;39.00
27188;DHT22;14708;50.872;5.306;2023-06-04T14:41:02;24.00;38.90
27188;DHT22;14708;50.872;5.306;2023-06-04T14:43:28;24.00;39.10
27188;DHT22;14708;50.872;5.306;2023-06-04T14:45:54;24.00;38.70
27188;DHT22;14708;50.872;5.306;2023-06-04T14:48:20;24.00;38.70
27188;DHT22;14708;50.872;5.306;2023-06-04T14:50:45;24.00;38.50
27188;DHT22;14708;50.872;5.306;2023-06-04T14:53:12;24.00;37.70
27188;DHT22;14708;50.872;5.306;2023-06-04T14:55:38;24.00;38.30
27188;DHT22;14708;50.872;5.306;2023-06-04T14:58:04;24.00;38.50
27188;DHT22;14708;50.872;5.306;2023-06-04T15:00:31;24.00;37.80
27188;DHT22;14708;50.872;5.306;2023-06-04T15:02:57;24.00;37.30
27188;DHT22;14708;50.872;5.306;2023-06-04T15:05:23;24.20;38.60
27188;DHT22;14708;50.872;5.306;2023-06-04T15:07:48;24.30;37.90
27188;DHT22;14708;50.872;5.306;2023-06-04T15:10:14;24.30;38.40
27188;DHT22;14708;50.872;5.306;2023-06-04T15:12:40;24.30;38.80
27188;DHT22;14708;50.872;5.306;2023-06-04T15:15:07;24.30;38.40
27188;DHT22;14708;50.872;5.306;2023-06-04T15:17:36;24.40;39.20
27188;DHT22;14708;50.872;5.306;2023-06-04T15:20:03;24.40;39.10
27188;DHT22;14708;50.872;5.306;2023-06-04T15:22:29;24.50;38.00
27188;DHT22;14708;50.872;5.306;2023-06-04T15:24:55;24.40;37.00
27188;DHT22;14708;50.872;5.306;2023-06-04T15:27:21;24.40;38.40
27188;DHT22;14708;50.872;5.306;2023-06-04T15:29:49;24.50;38.90
27188;DHT22;14708;50.872;5.306;2023-06-04T15:32:15;24.50;38.50
27188;DHT22;14708;50.872;5.306;2023-06-04T15:34:41;24.40;38.30
27188;DHT22;14708;50.872;5.306;2023-06-04T15:37:07;24.50;39.20
27188;DHT22;14708;50.872;5.306;2023-06-04T15:39:32;24.50;38.80
27188;DHT22;14708;50.872;5.306;2023-06-04T15:41:58;24.40;38.10
27188;DHT22;14708;50.872;5.306;2023-06-04T15:44:24;24.50;38.40